Fall River Mills, CA (96028)

11:19 PM PDT on September 16, 2014 (GMT -0700)
Glenburn | Change Station
CLOSE
Current Station
Personal Weather Station
Location: Fall River Mills, CA
Elevation: 3347 ft
Nearby Weather Stations

Elev 3347 ft 41.08 °N, 121.54 °W | Updated 15 seconds ago

Partly Cloudy
Partly Cloudy
55.2 °F
Feels Like 55.2 °F
N
0.0
Wind Variable Wind from ENE
Gusts 0.0 mph

Today
High -- | Low -- °F
--% Chance of Precip.
Yesterday
High -- | Low -- °F
Precip. -- in
6:47 AM 7:13 PM
Last Quarter, 39% visible
Pressure 29.90 in
Visibility 10.0 miles
Clouds Clear
Dew Point 23 °F
Humidity 28%
Rainfall 0.00 in
Snow Depth 0 in , 0 in , 0 in
UV 0 out of 12
Pollen 6.80 out of 12
Air Quality Not available.
Flu Activity Not available.
METAR KMHS 170556Z AUTO 00000KT 10SM CLR 14/02 A2992 RMK AO2 SLP124 T01390017 10256 20139 56005

More Conditions Fewer Conditions

Pressure 29.90 in
Visibility 10.0 miles
Clouds Clear
Dew Point 23 °F
Humidity 28%
Rainfall 0.00 in
Snow Depth 0 in , 0 in , 0 in
UV 0 out of 12
Pollen 6.80 out of 12
Air Quality Not available.
Flu Activity Not available.
METAR KMHS 170556Z AUTO 00000KT 10SM CLR 14/02 A2992 RMK AO2 SLP124 T01390017 10256 20139 56005

More Conditions Fewer Conditions

10-Day Weather Forecast

Almanac

Astronomy

Sep. 16, 2014 Rise Set
Actual Time 6:47 AM PDT 7:13 PM PDT
Civil Twilight 6:19 AM PDT 7:40 PM PDT
Nautical Twilight 5:47 AM PDT 8:13 PM PDT
Astronomical Twilight 5:14 AM PDT 8:46 PM PDT
Moon No Moon Rise 2:43 PM PDT (9/16)
Length of Visible Light 13h 20m
Length of Day
12h 25m
Tomorrow will be 2m 42s shorter.
Last Quarter, 39% of the Moon is Illuminated
Sep 17
Last Quarter
Sep 24
New
Oct 1
First Quarter
Oct 8
Full
Oct 15
Last Quarter

Yesterday's Extremes

State Highs State Lows

Community

WunderPhotos

Upload Photos

1,753,970 photos uploaded!

Nearby

Snow Depth

Station Depth Elevation
Echo Peak 0 in 7800 ft
Spratt Creek 0 in 6200 ft
Tahoe City Cross 0 in 6750 ft
Summit Meadow 0 in 9122 ft
Monitor Pass 0 in 8350 ft

Earthquake Activity

City Distance Mag. Time & Date
Lakeview, Oregon 112 miles 2.6 1:34 PM PDT
2014-09-16
Lakeview, Oregon 111 miles 2.5 4:10 AM PDT
2014-09-16
Lakeview, Oregon 112 miles 3.0 4:23 PM PDT
2014-09-15
Lakeview, Oregon 111 miles 2.9 6:16 AM PDT
2014-09-15
Minimum magnitude displayed is 2.5.

Coastal Water Temperatures

Place Temperature
No Stations Reporting

Nearby Weather Stations